Time;durP1;ratioP1;P1;durP2;ratioP2;P2;SDS_P1;SDS_P2;PMS_P1;PMS_P2;Temp;Humidity;BMP_temperature;BMP_pressure;BME280_temperature;BME280_humidity;BME280_pressure;Samples;Min_cycle;Max_cycle;Signal;HPM_P1;HPM_P2
2024/03/24 00:00:06;;;;;;;;;;;23.10;48.60;;;;;;5080688;28;19912;-41
2024/03/24 00:02:31;;;;;;;;;;;23.10;48.60;;;;;;5073538;28;19978;-42
2024/03/24 00:04:57;;;;;;;;;;;23.10;48.60;;;;;;5080732;28;20349;-43
2024/03/24 00:07:24;;;;;;;;;;;23.10;48.60;;;;;;5069527;28;20366;-43
2024/03/24 00:09:50;;;;;;;;;;;23.10;48.60;;;;;;5083320;28;20517;-42
2024/03/24 00:12:16;;;;;;;;;;;23.10;48.60;;;;;;5084529;28;19909;-45
2024/03/24 00:14:42;;;;;;;;;;;23.00;48.50;;;;;;5083096;28;19920;-41
2024/03/24 00:17:08;;;;;;;;;;;23.00;48.50;;;;;;5079350;28;19963;-44
2024/03/24 00:19:33;;;;;;;;;;;23.00;49.10;;;;;;5072499;28;20334;-41
2024/03/24 00:21:59;;;;;;;;;;;22.90;48.40;;;;;;5074539;28;20317;-43
2024/03/24 00:24:25;;;;;;;;;;;23.00;48.60;;;;;;5073939;28;19913;-49
2024/03/24 00:26:51;;;;;;;;;;;23.00;48.60;;;;;;5083150;28;19912;-42
2024/03/24 00:29:17;;;;;;;;;;;23.00;48.60;;;;;;5077790;28;19913;-44
2024/03/24 00:31:43;;;;;;;;;;;23.00;48.60;;;;;;5068075;28;19948;-46
2024/03/24 00:34:09;;;;;;;;;;;23.00;48.60;;;;;;5067324;28;19912;-48
2024/03/24 00:36:35;;;;;;;;;;;22.90;48.50;;;;;;5081741;28;19916;-45
2024/03/24 00:39:01;;;;;;;;;;;22.90;48.50;;;;;;5083592;28;19916;-42
2024/03/24 00:41:27;;;;;;;;;;;22.90;48.50;;;;;;5077379;28;19951;-42
2024/03/24 00:43:52;;;;;;;;;;;22.90;48.50;;;;;;5080890;28;19927;-44
2024/03/24 00:46:18;;;;;;;;;;;22.90;48.50;;;;;;5074063;28;19913;-41
2024/03/24 00:48:44;;;;;;;;;;;23.00;48.60;;;;;;5072849;28;20427;-42
2024/03/24 00:51:10;;;;;;;;;;;23.00;48.50;;;;;;5072041;28;19971;-42
2024/03/24 00:53:36;;;;;;;;;;;22.90;48.40;;;;;;5073866;28;19976;-42
2024/03/24 00:56:02;;;;;;;;;;;22.90;48.40;;;;;;5075415;28;19920;-42
2024/03/24 00:58:28;;;;;;;;;;;22.90;48.40;;;;;;5076849;28;19912;-44
2024/03/24 01:00:56;;;;;;;;;;;22.90;48.40;;;;;;5080084;28;19912;-46
2024/03/24 01:03:22;;;;;;;;;;;22.80;48.30;;;;;;5073906;28;19959;-44
2024/03/24 01:05:49;;;;;;;;;;;22.80;48.40;;;;;;5066591;28;19916;-43
2024/03/24 01:08:15;;;;;;;;;;;22.90;48.50;;;;;;5065249;28;19913;-43
2024/03/24 01:10:45;;;;;;;;;;;22.90;48.40;;;;;;5065465;28;19928;-41
2024/03/24 01:13:12;;;;;;;;;;;22.90;48.30;;;;;;5066069;28;19935;-41
2024/03/24 01:15:42;;;;;;;;;;;22.90;48.30;;;;;;5073678;28;19932;-43
2024/03/24 01:18:09;;;;;;;;;;;22.80;48.30;;;;;;5065822;28;19923;-42
2024/03/24 01:20:35;;;;;;;;;;;22.80;48.30;;;;;;5072696;28;19909;-43
2024/03/24 01:23:02;;;;;;;;;;;22.80;48.30;;;;;;5065559;28;19952;-43
2024/03/24 01:25:29;;;;;;;;;;;22.80;48.20;;;;;;5070601;28;20054;-44
2024/03/24 01:27:55;;;;;;;;;;;22.80;48.30;;;;;;5075631;28;19919;-42
2024/03/24 01:30:21;;;;;;;;;;;22.80;48.20;;;;;;5082983;28;19912;-43
2024/03/24 01:32:47;;;;;;;;;;;22.80;48.10;;;;;;5074949;28;19939;-40
2024/03/24 01:35:17;;;;;;;;;;;22.80;48.10;;;;;;5066704;28;19916;-40
2024/03/24 01:37:43;;;;;;;;;;;22.80;48.10;;;;;;5066328;28;19999;-41
2024/03/24 01:40:10;;;;;;;;;;;22.70;48.10;;;;;;5077011;28;19913;-42
2024/03/24 01:42:36;;;;;;;;;;;22.70;48.00;;;;;;5065743;28;20372;-41
2024/03/24 01:45:02;;;;;;;;;;;22.70;48.00;;;;;;5065794;28;19921;-44
2024/03/24 01:47:29;;;;;;;;;;;22.80;48.20;;;;;;5071713;28;19963;-42
2024/03/24 01:49:55;;;;;;;;;;;22.80;48.10;;;;;;5065357;28;19952;-43
2024/03/24 01:52:21;;;;;;;;;;;22.80;48.00;;;;;;5067783;28;19919;-41
2024/03/24 01:54:48;;;;;;;;;;;22.70;48.00;;;;;;5077591;28;20169;-42
2024/03/24 01:57:14;;;;;;;;;;;22.70;48.00;;;;;;5075403;28;19912;-41
2024/03/24 01:59:40;;;;;;;;;;;22.70;47.90;;;;;;5066876;28;19909;-41
2024/03/24 02:02:06;;;;;;;;;;;22.70;47.90;;;;;;5065434;28;19987;-41
2024/03/24 02:04:33;;;;;;;;;;;22.70;48.00;;;;;;5071991;28;19912;-42
2024/03/24 02:07:01;;;;;;;;;;;22.70;48.00;;;;;;5075261;28;19912;-41
2024/03/24 02:09:28;;;;;;;;;;;22.70;47.90;;;;;;5066096;28;20384;-41
2024/03/24 02:11:54;;;;;;;;;;;22.70;47.90;;;;;;5071974;28;19928;-43
2024/03/24 02:14:21;;;;;;;;;;;22.70;47.90;;;;;;5065005;28;20041;-44
2024/03/24 02:16:47;;;;;;;;;;;22.70;47.90;;;;;;5081189;28;19912;-44
2024/03/24 02:19:13;;;;;;;;;;;22.60;47.80;;;;;;5077044;28;19915;-42
2024/03/24 02:21:39;;;;;;;;;;;22.60;47.80;;;;;;5081637;28;19934;-43
2024/03/24 02:24:06;;;;;;;;;;;22.70;47.90;;;;;;5080210;28;19935;-43
2024/03/24 02:26:34;;;;;;;;;;;22.70;47.90;;;;;;5078243;28;19954;-44
2024/03/24 02:29:00;;;;;;;;;;;22.70;47.80;;;;;;5070393;28;19940;-43
2024/03/24 02:31:26;;;;;;;;;;;22.70;47.80;;;;;;5064965;28;19947;-42
2024/03/24 02:33:53;;;;;;;;;;;22.60;47.70;;;;;;5072424;28;19915;-45
2024/03/24 02:36:19;;;;;;;;;;;22.60;47.80;;;;;;5077582;28;19958;-42
2024/03/24 02:38:46;;;;;;;;;;;22.60;47.80;;;;;;5070590;28;19923;-42
2024/03/24 02:41:12;;;;;;;;;;;22.60;47.80;;;;;;5070974;28;19913;-43
2024/03/24 02:43:38;;;;;;;;;;;22.60;47.80;;;;;;5072840;28;19916;-43
2024/03/24 02:46:04;;;;;;;;;;;22.70;47.80;;;;;;5074381;28;19909;-43
2024/03/24 02:48:30;;;;;;;;;;;22.60;47.90;;;;;;5076854;28;19915;-41
2024/03/24 02:50:59;;;;;;;;;;;22.60;47.70;;;;;;5078053;28;19912;-41
2024/03/24 02:53:25;;;;;;;;;;;22.60;47.70;;;;;;5077458;28;19950;-41
2024/03/24 02:55:51;;;;;;;;;;;22.60;47.70;;;;;;5071761;28;19952;-45
2024/03/24 02:58:22;;;;;;;;;;;22.50;47.80;;;;;;5071286;28;19912;-41
2024/03/24 03:00:48;;;;;;;;;;;22.60;47.80;;;;;;5071548;28;19936;-41
2024/03/24 03:03:15;;;;;;;;;;;22.60;47.70;;;;;;5070053;28;19919;-41
2024/03/24 03:05:41;;;;;;;;;;;22.60;47.70;;;;;;5071470;28;19915;-42
2024/03/24 03:08:08;;;;;;;;;;;22.60;47.60;;;;;;5081242;28;19998;-45
2024/03/24 03:10:34;;;;;;;;;;;22.60;47.60;;;;;;5080076;28;19904;-41
2024/03/24 03:13:01;;;;;;;;;;;22.50;47.60;;;;;;5065067;28;19951;-42
2024/03/24 03:15:27;;;;;;;;;;;22.50;47.70;;;;;;5071933;28;20432;-40
2024/03/24 03:17:53;;;;;;;;;;;22.60;47.80;;;;;;5080151;28;19929;-44
2024/03/24 03:20:19;;;;;;;;;;;22.60;47.70;;;;;;5076075;28;19999;-46
2024/03/24 03:22:46;;;;;;;;;;;22.60;47.70;;;;;;5080134;28;19909;-43
2024/03/24 03:25:12;;;;;;;;;;;22.50;47.60;;;;;;5079558;28;19912;-42
2024/03/24 03:27:38;;;;;;;;;;;22.50;47.60;;;;;;5073574;28;19916;-45
2024/03/24 03:30:05;;;;;;;;;;;22.50;47.60;;;;;;5071361;28;19909;-44
2024/03/24 03:32:32;;;;;;;;;;;22.50;47.70;;;;;;5070335;28;20450;-42
2024/03/24 03:34:58;;;;;;;;;;;22.50;47.70;;;;;;5074025;28;20397;-44
2024/03/24 03:37:24;;;;;;;;;;;22.60;47.80;;;;;;5074349;28;20459;-41
2024/03/24 03:39:50;;;;;;;;;;;22.50;47.70;;;;;;5078713;28;19972;-42
2024/03/24 03:42:16;;;;;;;;;;;22.50;47.70;;;;;;5080432;28;19908;-43
2024/03/24 03:44:43;;;;;;;;;;;22.50;47.70;;;;;;5077529;28;20022;-43
2024/03/24 03:47:09;;;;;;;;;;;22.40;47.60;;;;;;5088502;28;19912;-43
2024/03/24 03:49:35;;;;;;;;;;;22.40;47.80;;;;;;5079379;28;19908;-43
2024/03/24 03:52:02;;;;;;;;;;;22.50;47.80;;;;;;5088093;28;19915;-42
2024/03/24 03:54:31;;;;;;;;;;;22.50;47.80;;;;;;5083425;28;19912;-42
2024/03/24 03:56:57;;;;;;;;;;;22.50;47.80;;;;;;5084406;28;19916;-42
2024/03/24 03:59:24;;;;;;;;;;;22.50;47.70;;;;;;5078437;28;19990;-40
2024/03/24 04:01:50;;;;;;;;;;;22.40;47.70;;;;;;5083359;28;19912;-40
2024/03/24 04:04:17;;;;;;;;;;;22.40;47.70;;;;;;5084603;28;20014;-46
2024/03/24 04:06:43;;;;;;;;;;;22.40;47.80;;;;;;5082619;28;19909;-42
2024/03/24 04:09:15;;;;;;;;;;;22.50;47.90;;;;;;5071604;28;19923;-42
2024/03/24 04:11:41;;;;;;;;;;;22.50;47.80;;;;;;5081669;28;20110;-41
2024/03/24 04:14:07;;;;;;;;;;;22.50;47.80;;;;;;5084414;28;20376;-40
2024/03/24 04:16:33;;;;;;;;;;;22.50;47.70;;;;;;5083449;28;19942;-41
2024/03/24 04:18:59;;;;;;;;;;;22.40;47.70;;;;;;5079535;28;19912;-40
2024/03/24 04:21:25;;;;;;;;;;;22.40;47.70;;;;;;5077757;28;20366;-41
2024/03/24 04:23:51;;;;;;;;;;;22.40;47.80;;;;;;5083141;28;19912;-44
2024/03/24 04:26:17;;;;;;;;;;;22.50;47.90;;;;;;5079131;28;19908;-43
2024/03/24 04:28:43;;;;;;;;;;;22.50;47.80;;;;;;5083154;28;19943;-43
2024/03/24 04:31:09;;;;;;;;;;;22.50;47.80;;;;;;5083427;28;19965;-42
2024/03/24 04:33:35;;;;;;;;;;;22.40;47.70;;;;;;5069173;28;20724;-42
2024/03/24 04:36:01;;;;;;;;;;;22.40;47.70;;;;;;5083849;28;19920;-41
2024/03/24 04:38:27;;;;;;;;;;;22.40;47.80;;;;;;5084284;28;19908;-41
2024/03/24 04:40:53;;;;;;;;;;;22.40;47.90;;;;;;5080525;28;19955;-43
2024/03/24 04:43:20;;;;;;;;;;;22.40;47.80;;;;;;5079047;28;19919;-42
2024/03/24 04:45:46;;;;;;;;;;;22.40;47.80;;;;;;5076033;28;19908;-44
2024/03/24 04:48:12;;;;;;;;;;;22.40;47.80;;;;;;5072218;28;19912;-42
2024/03/24 04:50:38;;;;;;;;;;;22.40;47.80;;;;;;5073766;28;19912;-41
2024/03/24 04:53:06;;;;;;;;;;;22.40;47.80;;;;;;5083031;28;20395;-43
2024/03/24 04:55:32;;;;;;;;;;;22.30;47.70;;;;;;5077712;28;19942;-42
2024/03/24 04:57:58;;;;;;;;;;;22.40;47.90;;;;;;5082381;28;19912;-43
2024/03/24 05:00:25;;;;;;;;;;;22.40;47.90;;;;;;5070531;28;19912;-43
2024/03/24 05:02:51;;;;;;;;;;;22.40;47.80;;;;;;5082936;28;19912;-41
2024/03/24 05:05:16;;;;;;;;;;;22.40;47.90;;;;;;5071213;28;19913;-43
2024/03/24 05:07:43;;;;;;;;;;;22.40;47.80;;;;;;5074076;28;19916;-42
2024/03/24 05:10:09;;;;;;;;;;;22.30;47.80;;;;;;5065042;28;19973;-43
2024/03/24 05:12:35;;;;;;;;;;;22.30;47.90;;;;;;5072203;28;19917;-43
2024/03/24 05:15:01;;;;;;;;;;;22.30;48.00;;;;;;5067076;28;19920;-42
2024/03/24 05:17:27;;;;;;;;;;;22.40;48.00;;;;;;5072061;28;19922;-43
2024/03/24 05:19:55;;;;;;;;;;;22.40;48.00;;;;;;5073911;28;19912;-44
2024/03/24 05:22:20;;;;;;;;;;;22.40;47.90;;;;;;5073527;28;19966;-42
2024/03/24 05:24:46;;;;;;;;;;;22.30;47.90;;;;;;5076347;28;19912;-47
2024/03/24 05:27:14;;;;;;;;;;;22.30;47.90;;;;;;5075364;28;19919;-41
2024/03/24 05:29:39;;;;;;;;;;;22.30;48.00;;;;;;5068900;28;20007;-42
2024/03/24 05:32:05;;;;;;;;;;;22.30;48.00;;;;;;5076558;28;20365;-42
2024/03/24 05:34:31;;;;;;;;;;;22.40;48.10;;;;;;5082480;28;19919;-44
2024/03/24 05:36:57;;;;;;;;;;;22.40;48.10;;;;;;5082928;28;19935;-43
2024/03/24 05:39:23;;;;;;;;;;;22.30;48.00;;;;;;5075774;28;19970;-42
2024/03/24 05:41:49;;;;;;;;;;;22.30;48.00;;;;;;5079367;28;19923;-43
2024/03/24 05:44:15;;;;;;;;;;;22.20;48.00;;;;;;5065335;28;19920;-41
2024/03/24 05:46:41;;;;;;;;;;;22.30;48.10;;;;;;5066161;28;19909;-42
2024/03/24 05:49:08;;;;;;;;;;;22.30;48.10;;;;;;5078906;28;20262;-44
2024/03/24 05:51:34;;;;;;;;;;;22.30;48.10;;;;;;5075688;28;19916;-40
2024/03/24 05:53:59;;;;;;;;;;;22.30;48.10;;;;;;5079819;28;19954;-40
2024/03/24 05:56:26;;;;;;;;;;;22.30;48.00;;;;;;5078755;28;20262;-40
2024/03/24 05:58:51;;;;;;;;;;;22.20;48.00;;;;;;5073412;28;19935;-41
2024/03/24 06:01:17;;;;;;;;;;;22.30;48.80;;;;;;5071042;28;19912;-41
2024/03/24 06:03:43;;;;;;;;;;;22.30;48.20;;;;;;5068388;28;19964;-41
2024/03/24 06:06:09;;;;;;;;;;;22.30;48.20;;;;;;5082125;28;19912;-42
2024/03/24 06:08:35;;;;;;;;;;;22.30;48.20;;;;;;5075479;28;19912;-42
2024/03/24 06:11:02;;;;;;;;;;;22.30;48.10;;;;;;5070944;28;19919;-42
2024/03/24 06:13:28;;;;;;;;;;;22.20;48.10;;;;;;5078299;28;19943;-44
2024/03/24 06:15:53;;;;;;;;;;;22.20;48.10;;;;;;5071748;28;19920;-43
2024/03/24 06:18:19;;;;;;;;;;;22.20;48.20;;;;;;5073943;28;19935;-40
2024/03/24 06:20:45;;;;;;;;;;;22.30;48.20;;;;;;5104824;28;19943;-42
2024/03/24 06:23:11;;;;;;;;;;;22.30;48.20;;;;;;5082132;28;20325;-40
2024/03/24 06:25:37;;;;;;;;;;;22.30;48.20;;;;;;5073933;28;19912;-42
2024/03/24 06:28:03;;;;;;;;;;;22.20;48.10;;;;;;5077116;28;19956;-43
2024/03/24 06:30:29;;;;;;;;;;;22.20;48.70;;;;;;5071145;28;21281;-44
2024/03/24 06:32:55;;;;;;;;;;;22.20;48.20;;;;;;5074247;28;19909;-43
2024/03/24 06:35:21;;;;;;;;;;;22.20;48.30;;;;;;5074746;28;19920;-44
2024/03/24 06:37:47;;;;;;;;;;;22.30;48.30;;;;;;5065212;28;19913;-41
2024/03/24 06:40:13;;;;;;;;;;;22.30;48.30;;;;;;5072121;28;19923;-41
2024/03/24 06:43:00;;;;;;;;;;;22.30;48.20;;;;;;5071919;28;19908;-43
2024/03/24 06:45:29;;;;;;;;;;;22.20;48.70;;;;;;5080973;28;19917;-41
2024/03/24 06:47:55;;;;;;;;;;;22.20;48.20;;;;;;5073501;28;19909;-41
2024/03/24 06:50:21;;;;;;;;;;;22.10;48.20;;;;;;5076853;28;19920;-43
2024/03/24 06:52:48;;;;;;;;;;;22.20;48.30;;;;;;5079821;28;19912;-42
2024/03/24 06:55:14;;;;;;;;;;;22.20;48.30;;;;;;5073900;28;19938;-43
2024/03/24 06:57:39;;;;;;;;;;;22.20;48.30;;;;;;5073870;28;19940;-41
2024/03/24 07:00:06;;;;;;;;;;;22.20;48.20;;;;;;5079795;28;19912;-41
2024/03/24 07:02:31;;;;;;;;;;;22.20;48.20;;;;;;5067107;28;19912;-41
2024/03/24 07:04:57;;;;;;;;;;;22.10;48.10;;;;;;5080574;28;19935;-43
2024/03/24 07:07:23;;;;;;;;;;;22.10;48.20;;;;;;5081265;28;19912;-44
2024/03/24 07:09:49;;;;;;;;;;;22.20;48.30;;;;;;5078615;28;19917;-44
2024/03/24 07:12:15;;;;;;;;;;;22.20;48.30;;;;;;5068318;28;19916;-41
2024/03/24 07:14:41;;;;;;;;;;;22.20;48.20;;;;;;5072699;28;19940;-42
2024/03/24 07:17:07;;;;;;;;;;;22.20;48.20;;;;;;5074719;28;19976;-42
2024/03/24 07:19:33;;;;;;;;;;;22.20;48.20;;;;;;5068616;28;19919;-42
2024/03/24 07:21:58;;;;;;;;;;;22.10;48.20;;;;;;5069500;28;19920;-44
2024/03/24 07:24:24;;;;;;;;;;;22.10;48.20;;;;;;5087800;28;20258;-44
2024/03/24 07:26:50;;;;;;;;;;;22.20;48.30;;;;;;5072159;28;19920;-42
2024/03/24 07:29:16;;;;;;;;;;;22.20;48.30;;;;;;5062862;28;19917;-43
2024/03/24 07:31:42;;;;;;;;;;;22.20;48.20;;;;;;5071127;28;19912;-41
2024/03/24 07:34:08;;;;;;;;;;;22.20;48.20;;;;;;5068386;28;19963;-44
2024/03/24 07:36:34;;;;;;;;;;;22.10;48.20;;;;;;5074773;28;20337;-43
2024/03/24 07:39:00;;;;;;;;;;;22.10;48.20;;;;;;5070549;28;19912;-43
2024/03/24 07:41:26;;;;;;;;;;;22.10;48.30;;;;;;5062669;28;20015;-42
2024/03/24 07:43:52;;;;;;;;;;;22.20;48.30;;;;;;5070939;28;20063;-44
2024/03/24 07:46:18;;;;;;;;;;;22.20;48.30;;;;;;5063049;28;19912;-44
2024/03/24 07:48:43;;;;;;;;;;;22.20;48.20;;;;;;5076858;28;19908;-43
2024/03/24 07:51:09;;;;;;;;;;;22.10;48.20;;;;;;5082204;28;19948;-43
2024/03/24 07:53:36;;;;;;;;;;;22.10;48.20;;;;;;5084351;28;20296;-42
2024/03/24 07:56:01;;;;;;;;;;;22.10;48.30;;;;;;5076693;28;19916;-43
2024/03/24 07:58:27;;;;;;;;;;;22.10;48.30;;;;;;5074155;28;19912;-44
2024/03/24 08:00:53;;;;;;;;;;;22.20;48.30;;;;;;5073758;28;19919;-44
2024/03/24 08:03:19;;;;;;;;;;;22.20;48.30;;;;;;5073562;28;19912;-42
2024/03/24 08:05:45;;;;;;;;;;;22.10;48.20;;;;;;5070697;28;19919;-41
2024/03/24 08:08:11;;;;;;;;;;;22.10;48.20;;;;;;5063489;28;19943;-42
2024/03/24 08:10:37;;;;;;;;;;;22.00;48.20;;;;;;5068078;28;19913;-43
2024/03/24 08:13:02;;;;;;;;;;;22.10;48.30;;;;;;5073484;28;19927;-43
2024/03/24 08:15:28;;;;;;;;;;;22.10;48.30;;;;;;5081730;28;19920;-44
2024/03/24 08:17:54;;;;;;;;;;;22.10;48.30;;;;;;5081845;28;20300;-47
2024/03/24 08:20:20;;;;;;;;;;;22.10;48.20;;;;;;5069683;28;20003;-45
2024/03/24 08:22:46;;;;;;;;;;;22.10;48.20;;;;;;5078842;28;19908;-43
2024/03/24 08:25:12;;;;;;;;;;;22.00;48.20;;;;;;5074071;28;19955;-48
2024/03/24 08:27:37;;;;;;;;;;;22.00;48.30;;;;;;5075393;28;19920;-46
2024/03/24 08:30:04;;;;;;;;;;;22.10;48.40;;;;;;5071149;28;19930;-43
2024/03/24 08:32:29;;;;;;;;;;;22.10;48.30;;;;;;5082068;28;20624;-49
2024/03/24 08:34:56;;;;;;;;;;;22.10;48.30;;;;;;5080899;28;19924;-42
2024/03/24 08:37:22;;;;;;;;;;;22.10;48.20;;;;;;5074104;28;19919;-43
2024/03/24 08:39:47;;;;;;;;;;;22.10;48.30;;;;;;5075892;28;20003;-48
2024/03/24 08:42:14;;;;;;;;;;;22.00;48.30;;;;;;5084162;28;19927;-42
2024/03/24 08:44:40;;;;;;;;;;;22.00;48.30;;;;;;5072785;28;19923;-45
2024/03/24 08:47:06;;;;;;;;;;;22.10;48.30;;;;;;5080307;28;19968;-43
2024/03/24 08:49:31;;;;;;;;;;;22.10;48.30;;;;;;5068842;28;20362;-44
2024/03/24 08:51:57;;;;;;;;;;;22.10;48.20;;;;;;5066615;28;19999;-44
2024/03/24 08:54:23;;;;;;;;;;;22.00;48.30;;;;;;5073147;28;19919;-42
2024/03/24 08:56:49;;;;;;;;;;;22.00;48.30;;;;;;5072344;28;19916;-42
2024/03/24 08:59:15;;;;;;;;;;;22.00;48.30;;;;;;5066132;28;19940;-42
2024/03/24 09:01:41;;;;;;;;;;;22.00;48.30;;;;;;5073274;28;19912;-42
2024/03/24 09:04:07;;;;;;;;;;;22.10;48.30;;;;;;5072288;28;19913;-44
2024/03/24 09:06:33;;;;;;;;;;;22.10;48.30;;;;;;5066077;28;19919;-43
2024/03/24 09:08:58;;;;;;;;;;;22.00;48.20;;;;;;5075413;28;19957;-42
2024/03/24 09:11:24;;;;;;;;;;;22.00;48.30;;;;;;5076679;28;19915;-42
2024/03/24 09:13:50;;;;;;;;;;;22.00;48.30;;;;;;5068583;28;19912;-44
2024/03/24 09:16:16;;;;;;;;;;;22.00;48.30;;;;;;5083897;28;20670;-44
2024/03/24 09:18:45;;;;;;;;;;;22.00;48.30;;;;;;5071340;28;19913;-43
2024/03/24 09:21:11;;;;;;;;;;;22.00;48.30;;;;;;5078743;28;20166;-43
2024/03/24 09:23:37;;;;;;;;;;;22.00;48.20;;;;;;5075932;28;19930;-43
2024/03/24 09:26:03;;;;;;;;;;;22.00;48.20;;;;;;5069060;28;19920;-43
2024/03/24 09:28:29;;;;;;;;;;;22.00;48.20;;;;;;5081570;28;19912;-47
2024/03/24 09:30:59;;;;;;;;;;;21.90;48.20;;;;;;5071710;28;19916;-45
2024/03/24 09:33:24;;;;;;;;;;;22.00;48.30;;;;;;5073093;28;19919;-42
2024/03/24 09:35:50;;;;;;;;;;;22.00;48.20;;;;;;5074914;28;19920;-47
2024/03/24 09:38:16;;;;;;;;;;;22.00;48.20;;;;;;5076366;28;19956;-50
2024/03/24 09:40:42;;;;;;;;;;;22.00;48.20;;;;;;5068468;28;19913;-46
2024/03/24 09:43:08;;;;;;;;;;;21.90;48.10;;;;;;5070609;28;19917;-43
2024/03/24 09:45:34;;;;;;;;;;;21.90;48.20;;;;;;5079581;28;19999;-44
2024/03/24 09:48:02;;;;;;;;;;;21.90;48.20;;;;;;5074846;28;19939;-44
2024/03/24 09:50:27;;;;;;;;;;;21.90;48.20;;;;;;5075324;28;19943;-46
2024/03/24 09:52:54;;;;;;;;;;;22.00;48.10;;;;;;5080731;28;19912;-42
2024/03/24 09:55:21;;;;;;;;;;;22.00;48.10;;;;;;5081139;28;19927;-42
2024/03/24 09:57:47;;;;;;;;;;;21.90;48.10;;;;;;5071127;28;19912;-44
2024/03/24 10:00:13;;;;;;;;;;;21.90;48.10;;;;;;5062845;28;19936;-43
2024/03/24 10:02:39;;;;;;;;;;;21.90;48.20;;;;;;5079833;28;19943;-44
2024/03/24 10:05:05;;;;;;;;;;;21.90;48.20;;;;;;5076786;28;20786;-43
2024/03/24 10:07:31;;;;;;;;;;;22.00;48.10;;;;;;5072504;28;19940;-44
2024/03/24 10:09:57;;;;;;;;;;;22.00;48.10;;;;;;5071837;28;19939;-44
2024/03/24 10:12:23;;;;;;;;;;;21.90;48.00;;;;;;5078806;28;19959;-44
2024/03/24 10:14:49;;;;;;;;;;;21.90;48.10;;;;;;5081374;28;19920;-42
2024/03/24 10:17:18;;;;;;;;;;;21.80;48.00;;;;;;5082328;28;19979;-42
2024/03/24 10:19:48;;;;;;;;;;;21.90;48.20;;;;;;5067198;28;19919;-42
2024/03/24 10:22:14;;;;;;;;;;;21.90;48.10;;;;;;5075253;28;20316;-43
2024/03/24 10:24:43;;;;;;;;;;;21.90;48.10;;;;;;5070814;28;19934;-43
2024/03/24 10:27:09;;;;;;;;;;;21.90;48.00;;;;;;5062443;28;19917;-43
2024/03/24 10:29:35;;;;;;;;;;;21.80;48.00;;;;;;5079256;28;19912;-41
2024/03/24 10:32:01;;;;;;;;;;;21.80;48.10;;;;;;5074913;28;19979;-45
2024/03/24 10:34:34;;;;;;;;;;;21.90;48.10;;;;;;5066766;28;19909;-43
2024/03/24 10:36:59;;;;;;;;;;;21.90;48.10;;;;;;5063566;28;19916;-42
2024/03/24 10:39:25;;;;;;;;;;;21.90;48.00;;;;;;5063810;28;19956;-43
2024/03/24 10:41:51;;;;;;;;;;;21.90;48.00;;;;;;5065021;28;19963;-44
2024/03/24 10:44:17;;;;;;;;;;;21.80;48.00;;;;;;5069229;28;20693;-43
2024/03/24 10:46:44;;;;;;;;;;;21.80;48.10;;;;;;5073571;28;19932;-44
2024/03/24 10:49:09;;;;;;;;;;;21.80;48.10;;;;;;5069256;28;19951;-42
2024/03/24 10:51:35;;;;;;;;;;;21.90;48.10;;;;;;5070680;28;19912;-43
2024/03/24 10:54:03;;;;;;;;;;;21.90;48.00;;;;;;5072308;28;19942;-42
2024/03/24 10:56:31;;;;;;;;;;;21.90;48.00;;;;;;5078496;28;19942;-43
2024/03/24 10:59:01;;;;;;;;;;;21.80;48.00;;;;;;5078193;28;19913;-43
2024/03/24 11:01:27;;;;;;;;;;;21.80;48.00;;;;;;5064171;28;19912;-43
2024/03/24 11:03:54;;;;;;;;;;;21.80;48.10;;;;;;5079539;28;20320;-45
2024/03/24 11:06:20;;;;;;;;;;;21.90;48.10;;;;;;5063383;28;19919;-43
2024/03/24 11:08:46;;;;;;;;;;;21.90;48.00;;;;;;5071364;28;20315;-43
2024/03/24 11:11:12;;;;;;;;;;;21.90;48.00;;;;;;5069283;28;19920;-42
2024/03/24 11:13:38;;;;;;;;;;;21.80;47.90;;;;;;5069551;28;20014;-43
2024/03/24 11:16:04;;;;;;;;;;;21.80;48.00;;;;;;5069862;28;19992;-43
2024/03/24 11:18:30;;;;;;;;;;;21.80;48.00;;;;;;5063477;28;19935;-43
2024/03/24 11:21:00;;;;;;;;;;;21.80;48.10;;;;;;5080947;28;19908;-44
2024/03/24 11:23:33;;;;;;;;;;;21.90;48.00;;;;;;5071006;28;19913;-45
2024/03/24 11:26:01;;;;;;;;;;;21.90;48.00;;;;;;5068522;28;20022;-47
2024/03/24 11:28:42;;;;;;;;;;;21.80;47.90;;;;;;5062650;28;20417;-43
2024/03/24 11:31:12;;;;;;;;;;;21.80;47.90;;;;;;5063703;28;19917;-42
2024/03/24 11:33:38;;;;;;;;;;;21.70;47.90;;;;;;5071485;28;19917;-43
2024/03/24 11:36:17;;;;;;;;;;;21.80;48.00;;;;;;5080180;28;19917;-45
2024/03/24 11:38:43;;;;;;;;;;;21.90;48.00;;;;;;5079427;28;20426;-44
2024/03/24 11:41:12;;;;;;;;;;;21.90;47.90;;;;;;5070527;28;19983;-43
2024/03/24 11:43:38;;;;;;;;;;;21.80;47.90;;;;;;5064525;28;19919;-43
2024/03/24 11:46:04;;;;;;;;;;;21.80;47.90;;;;;;5074697;28;19912;-45
2024/03/24 11:48:34;;;;;;;;;;;21.70;47.90;;;;;;5077146;28;19915;-43
2024/03/24 11:51:01;;;;;;;;;;;21.70;47.90;;;;;;5078332;28;19950;-43
2024/03/24 11:53:28;;;;;;;;;;;21.80;47.90;;;;;;5067186;28;19909;-45
2024/03/24 11:55:53;;;;;;;;;;;21.80;47.80;;;;;;5066141;28;19964;-43
2024/03/24 11:58:22;;;;;;;;;;;21.80;47.80;;;;;;5080706;28;19915;-43
2024/03/24 12:00:50;;;;;;;;;;;21.70;47.80;;;;;;5080690;28;19912;-44
2024/03/24 12:03:16;;;;;;;;;;;21.70;47.80;;;;;;5079886;28;19912;-43
2024/03/24 12:05:43;;;;;;;;;;;21.80;47.90;;;;;;5065103;28;19942;-46
2024/03/24 12:08:09;;;;;;;;;;;21.80;47.90;;;;;;5066534;28;19919;-43
2024/03/24 12:10:35;;;;;;;;;;;21.80;47.80;;;;;;5066765;28;19908;-48
2024/03/24 12:13:02;;;;;;;;;;;21.80;47.80;;;;;;5066448;28;19990;-46
2024/03/24 12:15:48;;;;;;;;;;;21.80;47.80;;;;;;5073916;28;20599;-44
2024/03/24 12:18:13;;;;;;;;;;;21.70;47.80;;;;;;5082596;28;19908;-46
2024/03/24 12:20:40;;;;;;;;;;;21.70;47.80;;;;;;5082084;28;19916;-43
2024/03/24 12:23:06;;;;;;;;;;;21.70;47.80;;;;;;5082891;28;19912;-43
2024/03/24 12:25:32;;;;;;;;;;;21.80;47.70;;;;;;5072641;28;19983;-44
2024/03/24 12:27:58;;;;;;;;;;;21.80;47.60;;;;;;5082178;28;19912;-45
2024/03/24 12:30:24;;;;;;;;;;;21.80;47.60;;;;;;5082452;28;19908;-44
2024/03/24 12:32:50;;;;;;;;;;;21.70;47.60;;;;;;5082352;28;19954;-43
2024/03/24 12:35:17;;;;;;;;;;;21.70;47.60;;;;;;5082295;28;20077;-45
2024/03/24 12:37:50;;;;;;;;;;;21.80;47.50;;;;;;5073625;28;19912;-44
2024/03/24 12:40:16;;;;;;;;;;;21.80;48.00;;;;;;5082446;28;19920;-43
2024/03/24 12:42:41;;;;;;;;;;;21.80;47.30;;;;;;5082002;28;19912;-46
2024/03/24 12:45:08;;;;;;;;;;;21.80;47.30;;;;;;5082203;28;19920;-44
2024/03/24 12:47:34;;;;;;;;;;;21.80;47.30;;;;;;5082099;28;19916;-45
2024/03/24 12:50:00;;;;;;;;;;;21.70;47.30;;;;;;5081747;28;19927;-43
2024/03/24 12:52:26;;;;;;;;;;;21.70;47.30;;;;;;5082307;28;19964;-43
2024/03/24 12:54:52;;;;;;;;;;;21.70;47.10;;;;;;5079902;28;19969;-43
2024/03/24 12:57:18;;;;;;;;;;;21.80;47.10;;;;;;5069049;28;19913;-43
2024/03/24 12:59:56;;;;;;;;;;;21.80;47.10;;;;;;5064808;28;19909;-43
2024/03/24 13:02:22;;;;;;;;;;;21.70;47.00;;;;;;5065267;28;20416;-43
2024/03/24 13:04:48;;;;;;;;;;;21.70;46.90;;;;;;5073556;28;19916;-43
2024/03/24 13:07:16;;;;;;;;;;;21.70;47.00;;;;;;5066148;28;19913;-48
2024/03/24 13:09:42;;;;;;;;;;;21.70;46.90;;;;;;5072720;28;19912;-43
2024/03/24 13:12:09;;;;;;;;;;;21.80;46.80;;;;;;5063417;28;19938;-42
2024/03/24 13:14:35;;;;;;;;;;;21.80;46.70;;;;;;5065449;28;19912;-44
2024/03/24 13:17:01;;;;;;;;;;;21.80;46.80;;;;;;5069512;28;20371;-42
2024/03/24 13:19:41;;;;;;;;;;;21.70;46.60;;;;;;5076151;28;19924;-44
2024/03/24 13:22:07;;;;;;;;;;;21.70;46.60;;;;;;5071607;28;19919;-46
2024/03/24 13:24:37;;;;;;;;;;;21.80;46.50;;;;;;5070025;28;19913;-45
2024/03/24 13:27:09;;;;;;;;;;;21.80;46.40;;;;;;5067166;28;20034;-45
2024/03/24 13:29:34;;;;;;;;;;;21.90;46.40;;;;;;5065132;28;19935;-42
2024/03/24 13:32:01;;;;;;;;;;;21.80;46.30;;;;;;5069768;28;19912;-44
2024/03/24 13:34:30;;;;;;;;;;;21.80;46.20;;;;;;5077016;28;19981;-44
2024/03/24 13:36:55;;;;;;;;;;;21.70;46.20;;;;;;5075486;28;19920;-42
2024/03/24 13:39:40;;;;;;;;;;;21.80;46.20;;;;;;5069410;28;19912;-44
2024/03/24 13:42:19;;;;;;;;;;;21.90;46.10;;;;;;5065534;28;20032;-44
2024/03/24 13:44:45;;;;;;;;;;;21.90;46.00;;;;;;5065136;28;19967;-44
2024/03/24 13:47:18;;;;;;;;;;;21.90;45.90;;;;;;5070471;28;19912;-42
2024/03/24 13:49:44;;;;;;;;;;;21.80;45.90;;;;;;5071467;28;19912;-41
2024/03/24 13:52:10;;;;;;;;;;;21.80;45.90;;;;;;5084563;28;19916;-42
2024/03/24 13:54:36;;;;;;;;;;;21.90;45.90;;;;;;5079391;28;19999;-43
2024/03/24 13:57:02;;;;;;;;;;;21.90;45.80;;;;;;5074838;28;19916;-42
2024/03/24 13:59:28;;;;;;;;;;;22.00;45.80;;;;;;5067839;28;19958;-44
2024/03/24 14:01:55;;;;;;;;;;;21.90;45.70;;;;;;5064835;28;19912;-43
2024/03/24 14:04:21;;;;;;;;;;;21.90;45.70;;;;;;5077425;28;19977;-44
2024/03/24 14:06:47;;;;;;;;;;;21.90;45.70;;;;;;5065989;28;19912;-44
2024/03/24 14:09:13;;;;;;;;;;;22.00;45.60;;;;;;5069903;28;19908;-46
2024/03/24 14:11:40;;;;;;;;;;;22.00;45.50;;;;;;5073941;28;19916;-43